sensor_id;sensor_type;location;lat;lon;timestamp;P1;durP1;ratioP1;P2;durP2;ratioP2
21235;SDS011;10775;42.678;26.324;2024-01-07T00:00:41;8.95;;;5.20;;
21235;SDS011;10775;42.678;26.324;2024-01-07T00:03:07;9.65;;;5.13;;
21235;SDS011;10775;42.678;26.324;2024-01-07T00:05:32;12.25;;;5.72;;
21235;SDS011;10775;42.678;26.324;2024-01-07T00:07:57;10.20;;;5.20;;
21235;SDS011;10775;42.678;26.324;2024-01-07T00:10:23;9.93;;;5.35;;
21235;SDS011;10775;42.678;26.324;2024-01-07T00:12:48;8.25;;;4.90;;
21235;SDS011;10775;42.678;26.324;2024-01-07T00:15:15;11.30;;;5.25;;
21235;SDS011;10775;42.678;26.324;2024-01-07T00:17:40;9.13;;;5.00;;
21235;SDS011;10775;42.678;26.324;2024-01-07T00:20:06;10.45;;;5.55;;
21235;SDS011;10775;42.678;26.324;2024-01-07T00:22:32;9.45;;;5.28;;
21235;SDS011;10775;42.678;26.324;2024-01-07T00:24:58;8.65;;;5.57;;
21235;SDS011;10775;42.678;26.324;2024-01-07T00:27:23;8.68;;;4.65;;
21235;SDS011;10775;42.678;26.324;2024-01-07T00:29:49;9.10;;;4.95;;
21235;SDS011;10775;42.678;26.324;2024-01-07T00:32:14;10.20;;;5.18;;
21235;SDS011;10775;42.678;26.324;2024-01-07T00:34:39;11.90;;;5.10;;
21235;SDS011;10775;42.678;26.324;2024-01-07T00:37:05;9.13;;;4.45;;
21235;SDS011;10775;42.678;26.324;2024-01-07T00:39:30;11.38;;;5.18;;
21235;SDS011;10775;42.678;26.324;2024-01-07T00:41:56;12.13;;;5.53;;
21235;SDS011;10775;42.678;26.324;2024-01-07T00:44:21;11.48;;;5.20;;
21235;SDS011;10775;42.678;26.324;2024-01-07T00:46:47;9.82;;;5.60;;
21235;SDS011;10775;42.678;26.324;2024-01-07T00:49:12;12.18;;;5.93;;
21235;SDS011;10775;42.678;26.324;2024-01-07T00:51:37;10.63;;;5.28;;
21235;SDS011;10775;42.678;26.324;2024-01-07T00:54:03;12.32;;;5.70;;
21235;SDS011;10775;42.678;26.324;2024-01-07T00:56:28;10.13;;;5.25;;
21235;SDS011;10775;42.678;26.324;2024-01-07T00:58:55;11.85;;;5.60;;
21235;SDS011;10775;42.678;26.324;2024-01-07T01:01:20;9.60;;;5.40;;
21235;SDS011;10775;42.678;26.324;2024-01-07T01:03:46;9.88;;;5.70;;
21235;SDS011;10775;42.678;26.324;2024-01-07T01:06:12;12.13;;;4.85;;
21235;SDS011;10775;42.678;26.324;2024-01-07T01:08:37;9.05;;;4.88;;
21235;SDS011;10775;42.678;26.324;2024-01-07T01:11:02;11.40;;;5.25;;
21235;SDS011;10775;42.678;26.324;2024-01-07T01:13:28;13.18;;;5.88;;
21235;SDS011;10775;42.678;26.324;2024-01-07T01:15:53;11.80;;;5.45;;
21235;SDS011;10775;42.678;26.324;2024-01-07T01:18:20;8.43;;;5.07;;
21235;SDS011;10775;42.678;26.324;2024-01-07T01:20:45;9.65;;;5.57;;
21235;SDS011;10775;42.678;26.324;2024-01-07T01:23:11;11.48;;;5.85;;
21235;SDS011;10775;42.678;26.324;2024-01-07T01:25:36;15.20;;;6.97;;
21235;SDS011;10775;42.678;26.324;2024-01-07T01:28:04;17.55;;;8.10;;
21235;SDS011;10775;42.678;26.324;2024-01-07T01:30:29;10.82;;;6.55;;
21235;SDS011;10775;42.678;26.324;2024-01-07T01:32:56;14.00;;;7.05;;
21235;SDS011;10775;42.678;26.324;2024-01-07T01:35:22;12.05;;;6.30;;
21235;SDS011;10775;42.678;26.324;2024-01-07T01:37:47;10.05;;;5.60;;
21235;SDS011;10775;42.678;26.324;2024-01-07T01:40:13;9.25;;;5.28;;
21235;SDS011;10775;42.678;26.324;2024-01-07T01:42:42;10.50;;;5.57;;
21235;SDS011;10775;42.678;26.324;2024-01-07T01:45:08;10.27;;;5.18;;
21235;SDS011;10775;42.678;26.324;2024-01-07T01:47:34;10.27;;;5.40;;
21235;SDS011;10775;42.678;26.324;2024-01-07T01:49:59;11.77;;;5.40;;
21235;SDS011;10775;42.678;26.324;2024-01-07T01:52:25;11.93;;;4.97;;
21235;SDS011;10775;42.678;26.324;2024-01-07T01:54:51;10.45;;;5.03;;
21235;SDS011;10775;42.678;26.324;2024-01-07T01:57:19;13.77;;;6.53;;
21235;SDS011;10775;42.678;26.324;2024-01-07T01:59:47;12.32;;;6.43;;
21235;SDS011;10775;42.678;26.324;2024-01-07T02:02:13;12.63;;;6.47;;
21235;SDS011;10775;42.678;26.324;2024-01-07T02:04:39;11.52;;;6.07;;
21235;SDS011;10775;42.678;26.324;2024-01-07T02:07:04;17.98;;;6.95;;
21235;SDS011;10775;42.678;26.324;2024-01-07T02:09:30;15.43;;;7.00;;
21235;SDS011;10775;42.678;26.324;2024-01-07T02:12:02;12.70;;;6.13;;
21235;SDS011;10775;42.678;26.324;2024-01-07T02:14:29;11.50;;;5.47;;
21235;SDS011;10775;42.678;26.324;2024-01-07T02:16:55;10.15;;;5.55;;
21235;SDS011;10775;42.678;26.324;2024-01-07T02:19:20;11.65;;;6.10;;
21235;SDS011;10775;42.678;26.324;2024-01-07T02:21:47;14.57;;;7.88;;
21235;SDS011;10775;42.678;26.324;2024-01-07T02:24:16;9.40;;;6.07;;
21235;SDS011;10775;42.678;26.324;2024-01-07T02:26:41;12.20;;;6.35;;
21235;SDS011;10775;42.678;26.324;2024-01-07T02:29:07;10.75;;;5.13;;
21235;SDS011;10775;42.678;26.324;2024-01-07T02:31:32;8.90;;;5.30;;
21235;SDS011;10775;42.678;26.324;2024-01-07T02:33:58;10.18;;;5.60;;
21235;SDS011;10775;42.678;26.324;2024-01-07T02:36:23;13.85;;;6.43;;
21235;SDS011;10775;42.678;26.324;2024-01-07T02:38:49;9.05;;;5.28;;
21235;SDS011;10775;42.678;26.324;2024-01-07T02:41:14;10.00;;;4.88;;
21235;SDS011;10775;42.678;26.324;2024-01-07T02:43:39;11.05;;;5.00;;
21235;SDS011;10775;42.678;26.324;2024-01-07T02:46:05;7.05;;;4.18;;
21235;SDS011;10775;42.678;26.324;2024-01-07T02:48:30;10.80;;;4.80;;
21235;SDS011;10775;42.678;26.324;2024-01-07T02:50:56;7.00;;;4.25;;
21235;SDS011;10775;42.678;26.324;2024-01-07T02:53:21;12.43;;;4.93;;
21235;SDS011;10775;42.678;26.324;2024-01-07T02:55:46;9.57;;;4.57;;
21235;SDS011;10775;42.678;26.324;2024-01-07T02:58:12;7.95;;;4.28;;
21235;SDS011;10775;42.678;26.324;2024-01-07T03:00:37;10.40;;;4.13;;
21235;SDS011;10775;42.678;26.324;2024-01-07T03:03:03;9.10;;;4.55;;
21235;SDS011;10775;42.678;26.324;2024-01-07T03:05:28;11.13;;;4.53;;
21235;SDS011;10775;42.678;26.324;2024-01-07T03:07:57;8.23;;;4.25;;
21235;SDS011;10775;42.678;26.324;2024-01-07T03:10:24;10.68;;;4.50;;
21235;SDS011;10775;42.678;26.324;2024-01-07T03:12:49;11.15;;;5.32;;
21235;SDS011;10775;42.678;26.324;2024-01-07T03:15:15;7.95;;;4.60;;
21235;SDS011;10775;42.678;26.324;2024-01-07T03:17:40;10.82;;;5.40;;
21235;SDS011;10775;42.678;26.324;2024-01-07T03:20:06;11.13;;;5.25;;
21235;SDS011;10775;42.678;26.324;2024-01-07T03:22:32;8.60;;;5.18;;
21235;SDS011;10775;42.678;26.324;2024-01-07T03:24:57;9.35;;;5.35;;
21235;SDS011;10775;42.678;26.324;2024-01-07T03:27:22;9.57;;;5.53;;
21235;SDS011;10775;42.678;26.324;2024-01-07T03:29:48;10.23;;;4.88;;
21235;SDS011;10775;42.678;26.324;2024-01-07T03:32:13;8.90;;;5.35;;
21235;SDS011;10775;42.678;26.324;2024-01-07T03:34:39;10.48;;;5.40;;
21235;SDS011;10775;42.678;26.324;2024-01-07T03:37:05;10.73;;;5.32;;
21235;SDS011;10775;42.678;26.324;2024-01-07T03:39:34;13.88;;;5.85;;
21235;SDS011;10775;42.678;26.324;2024-01-07T03:41:59;9.38;;;5.40;;
21235;SDS011;10775;42.678;26.324;2024-01-07T03:44:25;11.90;;;4.90;;
21235;SDS011;10775;42.678;26.324;2024-01-07T03:46:50;7.70;;;4.90;;
21235;SDS011;10775;42.678;26.324;2024-01-07T03:49:16;11.75;;;4.93;;
21235;SDS011;10775;42.678;26.324;2024-01-07T03:51:43;7.93;;;4.82;;
21235;SDS011;10775;42.678;26.324;2024-01-07T03:54:08;8.43;;;5.07;;
21235;SDS011;10775;42.678;26.324;2024-01-07T03:56:34;7.40;;;4.72;;
21235;SDS011;10775;42.678;26.324;2024-01-07T03:58:59;9.40;;;4.95;;
21235;SDS011;10775;42.678;26.324;2024-01-07T04:01:25;8.73;;;4.75;;
21235;SDS011;10775;42.678;26.324;2024-01-07T04:03:50;8.07;;;4.75;;
21235;SDS011;10775;42.678;26.324;2024-01-07T04:06:16;8.70;;;4.57;;
21235;SDS011;10775;42.678;26.324;2024-01-07T04:08:41;7.60;;;4.25;;
21235;SDS011;10775;42.678;26.324;2024-01-07T04:11:07;7.18;;;4.15;;
21235;SDS011;10775;42.678;26.324;2024-01-07T04:13:32;10.15;;;5.18;;
21235;SDS011;10775;42.678;26.324;2024-01-07T04:15:57;10.00;;;4.80;;
21235;SDS011;10775;42.678;26.324;2024-01-07T04:18:23;6.93;;;4.13;;
21235;SDS011;10775;42.678;26.324;2024-01-07T04:20:48;8.70;;;4.13;;
21235;SDS011;10775;42.678;26.324;2024-01-07T04:23:14;9.25;;;4.45;;
21235;SDS011;10775;42.678;26.324;2024-01-07T04:25:39;7.78;;;4.45;;
21235;SDS011;10775;42.678;26.324;2024-01-07T04:28:07;10.55;;;4.55;;
21235;SDS011;10775;42.678;26.324;2024-01-07T04:30:32;9.73;;;4.53;;
21235;SDS011;10775;42.678;26.324;2024-01-07T04:32:58;6.95;;;4.25;;
21235;SDS011;10775;42.678;26.324;2024-01-07T04:35:23;8.05;;;4.10;;
21235;SDS011;10775;42.678;26.324;2024-01-07T04:37:49;6.35;;;3.72;;
21235;SDS011;10775;42.678;26.324;2024-01-07T04:40:14;7.68;;;4.63;;
21235;SDS011;10775;42.678;26.324;2024-01-07T04:42:40;8.98;;;4.70;;
21235;SDS011;10775;42.678;26.324;2024-01-07T04:45:05;10.85;;;4.65;;
21235;SDS011;10775;42.678;26.324;2024-01-07T04:47:32;9.60;;;5.03;;
21235;SDS011;10775;42.678;26.324;2024-01-07T04:50:00;7.27;;;4.00;;
21235;SDS011;10775;42.678;26.324;2024-01-07T04:52:27;6.75;;;4.13;;
21235;SDS011;10775;42.678;26.324;2024-01-07T04:54:53;9.32;;;4.45;;
21235;SDS011;10775;42.678;26.324;2024-01-07T04:57:19;8.00;;;4.70;;
21235;SDS011;10775;42.678;26.324;2024-01-07T04:59:45;7.32;;;3.40;;
21235;SDS011;10775;42.678;26.324;2024-01-07T05:02:11;6.93;;;3.72;;
21235;SDS011;10775;42.678;26.324;2024-01-07T05:04:37;7.10;;;4.10;;
21235;SDS011;10775;42.678;26.324;2024-01-07T05:07:03;7.72;;;3.83;;
21235;SDS011;10775;42.678;26.324;2024-01-07T05:09:29;6.65;;;3.70;;
21235;SDS011;10775;42.678;26.324;2024-01-07T05:11:54;7.15;;;4.18;;
21235;SDS011;10775;42.678;26.324;2024-01-07T05:14:20;6.93;;;4.20;;
21235;SDS011;10775;42.678;26.324;2024-01-07T05:16:45;8.88;;;4.65;;
21235;SDS011;10775;42.678;26.324;2024-01-07T05:19:11;10.15;;;5.15;;
21235;SDS011;10775;42.678;26.324;2024-01-07T05:21:36;10.60;;;5.18;;
21235;SDS011;10775;42.678;26.324;2024-01-07T05:24:02;10.85;;;4.93;;
21235;SDS011;10775;42.678;26.324;2024-01-07T05:26:28;9.32;;;4.45;;
21235;SDS011;10775;42.678;26.324;2024-01-07T05:28:53;10.20;;;5.13;;
21235;SDS011;10775;42.678;26.324;2024-01-07T05:31:19;8.13;;;4.32;;
21235;SDS011;10775;42.678;26.324;2024-01-07T05:33:44;6.20;;;3.83;;
21235;SDS011;10775;42.678;26.324;2024-01-07T05:36:11;9.30;;;4.75;;
21235;SDS011;10775;42.678;26.324;2024-01-07T05:38:37;7.97;;;4.00;;
21235;SDS011;10775;42.678;26.324;2024-01-07T05:41:03;7.65;;;4.00;;
21235;SDS011;10775;42.678;26.324;2024-01-07T05:43:28;9.38;;;3.80;;
21235;SDS011;10775;42.678;26.324;2024-01-07T05:45:54;10.30;;;4.50;;
21235;SDS011;10775;42.678;26.324;2024-01-07T05:48:22;6.50;;;3.40;;
21235;SDS011;10775;42.678;26.324;2024-01-07T05:50:48;7.55;;;3.85;;
21235;SDS011;10775;42.678;26.324;2024-01-07T05:53:14;5.97;;;3.90;;
21235;SDS011;10775;42.678;26.324;2024-01-07T05:55:40;8.27;;;4.45;;
21235;SDS011;10775;42.678;26.324;2024-01-07T05:58:05;6.95;;;4.15;;
21235;SDS011;10775;42.678;26.324;2024-01-07T06:00:31;7.78;;;4.25;;
21235;SDS011;10775;42.678;26.324;2024-01-07T06:02:56;5.90;;;3.50;;
21235;SDS011;10775;42.678;26.324;2024-01-07T06:05:22;6.60;;;4.22;;
21235;SDS011;10775;42.678;26.324;2024-01-07T06:07:48;5.70;;;3.33;;
21235;SDS011;10775;42.678;26.324;2024-01-07T06:10:13;8.63;;;4.97;;
21235;SDS011;10775;42.678;26.324;2024-01-07T06:12:39;6.88;;;4.10;;
21235;SDS011;10775;42.678;26.324;2024-01-07T06:15:04;7.90;;;4.43;;
21235;SDS011;10775;42.678;26.324;2024-01-07T06:17:30;11.25;;;4.60;;
21235;SDS011;10775;42.678;26.324;2024-01-07T06:19:56;7.20;;;4.28;;
21235;SDS011;10775;42.678;26.324;2024-01-07T06:22:21;8.25;;;4.68;;
21235;SDS011;10775;42.678;26.324;2024-01-07T06:24:47;8.20;;;4.60;;
21235;SDS011;10775;42.678;26.324;2024-01-07T06:27:12;6.65;;;3.80;;
21235;SDS011;10775;42.678;26.324;2024-01-07T06:29:38;7.63;;;4.10;;
21235;SDS011;10775;42.678;26.324;2024-01-07T06:32:04;7.63;;;3.65;;
21235;SDS011;10775;42.678;26.324;2024-01-07T06:34:29;4.90;;;2.63;;
21235;SDS011;10775;42.678;26.324;2024-01-07T06:36:55;6.78;;;3.65;;
21235;SDS011;10775;42.678;26.324;2024-01-07T06:39:20;6.53;;;3.42;;
21235;SDS011;10775;42.678;26.324;2024-01-07T06:41:46;7.90;;;3.50;;
21235;SDS011;10775;42.678;26.324;2024-01-07T06:44:11;7.97;;;3.83;;
21235;SDS011;10775;42.678;26.324;2024-01-07T06:46:37;6.38;;;3.55;;
21235;SDS011;10775;42.678;26.324;2024-01-07T06:49:02;4.95;;;3.15;;
21235;SDS011;10775;42.678;26.324;2024-01-07T06:51:28;7.72;;;4.07;;
21235;SDS011;10775;42.678;26.324;2024-01-07T06:53:53;6.05;;;3.90;;
21235;SDS011;10775;42.678;26.324;2024-01-07T06:56:19;7.57;;;3.20;;
21235;SDS011;10775;42.678;26.324;2024-01-07T06:58:44;8.80;;;3.88;;
21235;SDS011;10775;42.678;26.324;2024-01-07T07:01:10;5.40;;;3.05;;
21235;SDS011;10775;42.678;26.324;2024-01-07T07:03:36;8.55;;;2.65;;
21235;SDS011;10775;42.678;26.324;2024-01-07T07:06:02;3.45;;;1.95;;
21235;SDS011;10775;42.678;26.324;2024-01-07T07:08:27;7.93;;;2.95;;
21235;SDS011;10775;42.678;26.324;2024-01-07T07:10:53;2.50;;;1.48;;
21235;SDS011;10775;42.678;26.324;2024-01-07T07:13:18;7.05;;;2.70;;
21235;SDS011;10775;42.678;26.324;2024-01-07T07:15:44;3.28;;;1.55;;
21235;SDS011;10775;42.678;26.324;2024-01-07T07:18:09;3.47;;;1.85;;
21235;SDS011;10775;42.678;26.324;2024-01-07T07:20:34;3.92;;;2.28;;
21235;SDS011;10775;42.678;26.324;2024-01-07T07:23:00;4.05;;;1.85;;
21235;SDS011;10775;42.678;26.324;2024-01-07T07:25:26;3.92;;;1.52;;
21235;SDS011;10775;42.678;26.324;2024-01-07T07:27:51;6.57;;;2.42;;
21235;SDS011;10775;42.678;26.324;2024-01-07T07:30:17;3.80;;;1.00;;
21235;SDS011;10775;42.678;26.324;2024-01-07T07:32:43;4.68;;;1.50;;
21235;SDS011;10775;42.678;26.324;2024-01-07T07:35:09;5.22;;;1.10;;
21235;SDS011;10775;42.678;26.324;2024-01-07T07:37:35;5.10;;;1.20;;
21235;SDS011;10775;42.678;26.324;2024-01-07T07:40:00;3.65;;;1.38;;
21235;SDS011;10775;42.678;26.324;2024-01-07T07:42:26;3.90;;;1.10;;
21235;SDS011;10775;42.678;26.324;2024-01-07T07:44:51;4.43;;;1.65;;
21235;SDS011;10775;42.678;26.324;2024-01-07T07:47:17;5.65;;;1.73;;
21235;SDS011;10775;42.678;26.324;2024-01-07T07:49:43;4.85;;;1.20;;
21235;SDS011;10775;42.678;26.324;2024-01-07T07:52:09;5.82;;;1.77;;
21235;SDS011;10775;42.678;26.324;2024-01-07T07:54:36;7.78;;;2.28;;
21235;SDS011;10775;42.678;26.324;2024-01-07T07:57:02;4.40;;;1.42;;
21235;SDS011;10775;42.678;26.324;2024-01-07T07:59:28;4.53;;;1.52;;
21235;SDS011;10775;42.678;26.324;2024-01-07T08:01:54;6.82;;;1.73;;
21235;SDS011;10775;42.678;26.324;2024-01-07T08:04:19;6.35;;;1.33;;
21235;SDS011;10775;42.678;26.324;2024-01-07T08:06:45;2.60;;;1.38;;
21235;SDS011;10775;42.678;26.324;2024-01-07T08:09:10;4.05;;;1.67;;
21235;SDS011;10775;42.678;26.324;2024-01-07T08:11:36;5.60;;;1.58;;
21235;SDS011;10775;42.678;26.324;2024-01-07T08:14:01;6.00;;;1.80;;
21235;SDS011;10775;42.678;26.324;2024-01-07T08:16:27;8.50;;;2.47;;
21235;SDS011;10775;42.678;26.324;2024-01-07T08:18:52;7.13;;;1.63;;
21235;SDS011;10775;42.678;26.324;2024-01-07T08:21:21;5.30;;;1.35;;
21235;SDS011;10775;42.678;26.324;2024-01-07T08:23:48;9.15;;;1.25;;
21235;SDS011;10775;42.678;26.324;2024-01-07T08:26:17;6.00;;;1.40;;
21235;SDS011;10775;42.678;26.324;2024-01-07T08:28:44;7.43;;;2.00;;
21235;SDS011;10775;42.678;26.324;2024-01-07T08:31:09;10.23;;;1.60;;
21235;SDS011;10775;42.678;26.324;2024-01-07T08:33:35;4.57;;;1.25;;
21235;SDS011;10775;42.678;26.324;2024-01-07T08:36:00;8.45;;;1.67;;
21235;SDS011;10775;42.678;26.324;2024-01-07T08:38:26;5.03;;;1.40;;
21235;SDS011;10775;42.678;26.324;2024-01-07T08:40:51;5.45;;;1.40;;
21235;SDS011;10775;42.678;26.324;2024-01-07T08:43:17;8.55;;;2.00;;
21235;SDS011;10775;42.678;26.324;2024-01-07T08:45:42;4.15;;;1.33;;
21235;SDS011;10775;42.678;26.324;2024-01-07T08:48:08;6.30;;;1.08;;
21235;SDS011;10775;42.678;26.324;2024-01-07T08:50:33;7.55;;;1.63;;
21235;SDS011;10775;42.678;26.324;2024-01-07T08:52:59;8.95;;;1.52;;
21235;SDS011;10775;42.678;26.324;2024-01-07T08:55:24;6.60;;;1.13;;
21235;SDS011;10775;42.678;26.324;2024-01-07T08:57:50;4.95;;;1.40;;
21235;SDS011;10775;42.678;26.324;2024-01-07T09:00:16;14.50;;;2.15;;
21235;SDS011;10775;42.678;26.324;2024-01-07T09:02:42;10.15;;;1.52;;
21235;SDS011;10775;42.678;26.324;2024-01-07T09:05:08;8.00;;;1.80;;
21235;SDS011;10775;42.678;26.324;2024-01-07T09:07:33;8.57;;;1.77;;
21235;SDS011;10775;42.678;26.324;2024-01-07T09:09:59;11.73;;;1.85;;
21235;SDS011;10775;42.678;26.324;2024-01-07T09:12:26;13.43;;;2.00;;
21235;SDS011;10775;42.678;26.324;2024-01-07T09:14:52;11.95;;;2.00;;
21235;SDS011;10775;42.678;26.324;2024-01-07T09:17:17;13.30;;;1.98;;
21235;SDS011;10775;42.678;26.324;2024-01-07T09:19:43;12.95;;;1.85;;
21235;SDS011;10775;42.678;26.324;2024-01-07T09:22:09;11.38;;;2.13;;
21235;SDS011;10775;42.678;26.324;2024-01-07T09:24:36;14.68;;;2.08;;
21235;SDS011;10775;42.678;26.324;2024-01-07T09:27:01;8.85;;;1.75;;
21235;SDS011;10775;42.678;26.324;2024-01-07T09:29:27;7.22;;;1.83;;
21235;SDS011;10775;42.678;26.324;2024-01-07T09:31:53;15.82;;;2.20;;
21235;SDS011;10775;42.678;26.324;2024-01-07T09:34:18;13.15;;;2.42;;
21235;SDS011;10775;42.678;26.324;2024-01-07T09:36:44;13.27;;;2.30;;
21235;SDS011;10775;42.678;26.324;2024-01-07T09:39:09;12.85;;;2.40;;
21235;SDS011;10775;42.678;26.324;2024-01-07T09:41:35;12.88;;;2.17;;
21235;SDS011;10775;42.678;26.324;2024-01-07T09:44:00;11.30;;;1.90;;
21235;SDS011;10775;42.678;26.324;2024-01-07T09:46:28;12.20;;;2.20;;
21235;SDS011;10775;42.678;26.324;2024-01-07T09:48:55;14.65;;;1.63;;
21235;SDS011;10775;42.678;26.324;2024-01-07T09:51:21;15.07;;;2.13;;
21235;SDS011;10775;42.678;26.324;2024-01-07T09:53:48;10.23;;;1.95;;
21235;SDS011;10775;42.678;26.324;2024-01-07T09:56:19;19.50;;;2.50;;
21235;SDS011;10775;42.678;26.324;2024-01-07T09:58:48;13.55;;;1.92;;
21235;SDS011;10775;42.678;26.324;2024-01-07T10:01:15;12.60;;;2.28;;
21235;SDS011;10775;42.678;26.324;2024-01-07T10:03:42;16.17;;;2.13;;
21235;SDS011;10775;42.678;26.324;2024-01-07T10:06:10;20.73;;;2.50;;
21235;SDS011;10775;42.678;26.324;2024-01-07T10:08:36;14.20;;;2.40;;
21235;SDS011;10775;42.678;26.324;2024-01-07T10:11:02;12.75;;;1.95;;
21235;SDS011;10775;42.678;26.324;2024-01-07T10:13:28;12.35;;;2.45;;
21235;SDS011;10775;42.678;26.324;2024-01-07T10:15:53;11.60;;;2.38;;
21235;SDS011;10775;42.678;26.324;2024-01-07T10:18:19;7.45;;;1.48;;
21235;SDS011;10775;42.678;26.324;2024-01-07T10:20:45;12.50;;;2.38;;
21235;SDS011;10775;42.678;26.324;2024-01-07T10:23:11;8.45;;;2.30;;
21235;SDS011;10775;42.678;26.324;2024-01-07T10:25:36;16.70;;;2.10;;
21235;SDS011;10775;42.678;26.324;2024-01-07T10:28:02;19.05;;;2.20;;
21235;SDS011;10775;42.678;26.324;2024-01-07T10:30:31;9.35;;;2.05;;
21235;SDS011;10775;42.678;26.324;2024-01-07T10:32:57;12.60;;;2.15;;
21235;SDS011;10775;42.678;26.324;2024-01-07T10:35:25;13.63;;;2.10;;
21235;SDS011;10775;42.678;26.324;2024-01-07T10:37:59;11.07;;;1.85;;
21235;SDS011;10775;42.678;26.324;2024-01-07T10:40:26;15.38;;;2.70;;
21235;SDS011;10775;42.678;26.324;2024-01-07T10:42:53;24.35;;;2.22;;
21235;SDS011;10775;42.678;26.324;2024-01-07T10:45:20;16.40;;;2.45;;
21235;SDS011;10775;42.678;26.324;2024-01-07T10:47:49;11.05;;;2.28;;
21235;SDS011;10775;42.678;26.324;2024-01-07T10:50:19;12.45;;;1.90;;
21235;SDS011;10775;42.678;26.324;2024-01-07T10:52:50;11.07;;;2.20;;
21235;SDS011;10775;42.678;26.324;2024-01-07T10:55:17;11.07;;;1.90;;
21235;SDS011;10775;42.678;26.324;2024-01-07T10:57:44;9.70;;;2.45;;
21235;SDS011;10775;42.678;26.324;2024-01-07T11:00:12;9.65;;;2.13;;
21235;SDS011;10775;42.678;26.324;2024-01-07T11:02:51;13.57;;;1.77;;
21235;SDS011;10775;42.678;26.324;2024-01-07T11:11:16;13.60;;;2.40;;
21235;SDS011;10775;42.678;26.324;2024-01-07T11:13:43;12.82;;;2.08;;
21235;SDS011;10775;42.678;26.324;2024-01-07T11:16:09;10.10;;;2.90;;
21235;SDS011;10775;42.678;26.324;2024-01-07T11:18:49;12.75;;;2.20;;
21235;SDS011;10775;42.678;26.324;2024-01-07T11:21:22;15.10;;;2.45;;
21235;SDS011;10775;42.678;26.324;2024-01-07T11:23:51;13.57;;;2.05;;
21235;SDS011;10775;42.678;26.324;2024-01-07T11:26:18;10.63;;;1.35;;
21235;SDS011;10775;42.678;26.324;2024-01-07T11:28:52;14.20;;;1.75;;
21235;SDS011;10775;42.678;26.324;2024-01-07T11:31:20;16.48;;;1.95;;
21235;SDS011;10775;42.678;26.324;2024-01-07T11:33:47;9.50;;;2.22;;
21235;SDS011;10775;42.678;26.324;2024-01-07T11:36:14;11.30;;;2.00;;
21235;SDS011;10775;42.678;26.324;2024-01-07T11:38:45;18.10;;;3.20;;
21235;SDS011;10775;42.678;26.324;2024-01-07T11:41:12;12.32;;;2.33;;
21235;SDS011;10775;42.678;26.324;2024-01-07T11:43:51;12.70;;;2.17;;
21235;SDS011;10775;42.678;26.324;2024-01-07T11:46:26;19.98;;;2.55;;
21235;SDS011;10775;42.678;26.324;2024-01-07T11:48:53;13.68;;;1.90;;
21235;SDS011;10775;42.678;26.324;2024-01-07T11:51:24;19.63;;;2.50;;
21235;SDS011;10775;42.678;26.324;2024-01-07T11:53:54;13.65;;;2.22;;
21235;SDS011;10775;42.678;26.324;2024-01-07T11:56:19;15.52;;;2.53;;
21235;SDS011;10775;42.678;26.324;2024-01-07T11:58:45;13.18;;;2.38;;
21235;SDS011;10775;42.678;26.324;2024-01-07T12:01:11;17.77;;;2.10;;
21235;SDS011;10775;42.678;26.324;2024-01-07T12:03:36;5.90;;;1.88;;
21235;SDS011;10775;42.678;26.324;2024-01-07T12:06:02;13.95;;;2.33;;
21235;SDS011;10775;42.678;26.324;2024-01-07T12:08:29;13.88;;;2.05;;
21235;SDS011;10775;42.678;26.324;2024-01-07T12:10:55;15.95;;;2.60;;
21235;SDS011;10775;42.678;26.324;2024-01-07T12:13:21;12.13;;;1.75;;
21235;SDS011;10775;42.678;26.324;2024-01-07T12:15:47;13.30;;;2.30;;
21235;SDS011;10775;42.678;26.324;2024-01-07T12:18:13;23.17;;;2.67;;
21235;SDS011;10775;42.678;26.324;2024-01-07T12:20:39;15.82;;;2.92;;
21235;SDS011;10775;42.678;26.324;2024-01-07T12:23:08;13.55;;;3.30;;
21235;SDS011;10775;42.678;26.324;2024-01-07T12:25:34;14.00;;;2.37;;
21235;SDS011;10775;42.678;26.324;2024-01-07T12:28:00;14.50;;;3.50;;
21235;SDS011;10775;42.678;26.324;2024-01-07T12:30:26;7.63;;;2.13;;
21235;SDS011;10775;42.678;26.324;2024-01-07T12:32:52;17.55;;;2.50;;
21235;SDS011;10775;42.678;26.324;2024-01-07T12:35:18;19.25;;;4.30;;
21235;SDS011;10775;42.678;26.324;2024-01-07T12:37:43;19.17;;;4.35;;
21235;SDS011;10775;42.678;26.324;2024-01-07T12:40:09;19.58;;;4.75;;
21235;SDS011;10775;42.678;26.324;2024-01-07T12:42:36;22.27;;;5.70;;
21235;SDS011;10775;42.678;26.324;2024-01-07T12:45:05;30.13;;;4.67;;
21235;SDS011;10775;42.678;26.324;2024-01-07T12:47:31;16.70;;;3.53;;
21235;SDS011;10775;42.678;26.324;2024-01-07T12:49:57;16.23;;;3.08;;
21235;SDS011;10775;42.678;26.324;2024-01-07T12:52:23;15.52;;;2.88;;
21235;SDS011;10775;42.678;26.324;2024-01-07T12:54:49;18.60;;;2.95;;
21235;SDS011;10775;42.678;26.324;2024-01-07T12:57:14;25.38;;;3.88;;
21235;SDS011;10775;42.678;26.324;2024-01-07T12:59:40;20.33;;;4.18;;
21235;SDS011;10775;42.678;26.324;2024-01-07T13:02:05;13.93;;;2.70;;
21235;SDS011;10775;42.678;26.324;2024-01-07T13:04:30;20.67;;;4.18;;
21235;SDS011;10775;42.678;26.324;2024-01-07T13:06:56;17.17;;;3.03;;
21235;SDS011;10775;42.678;26.324;2024-01-07T13:09:21;16.88;;;3.10;;
21235;SDS011;10775;42.678;26.324;2024-01-07T13:11:47;16.15;;;3.90;;
21235;SDS011;10775;42.678;26.324;2024-01-07T13:14:12;16.08;;;2.97;;
21235;SDS011;10775;42.678;26.324;2024-01-07T13:16:38;19.08;;;3.17;;
21235;SDS011;10775;42.678;26.324;2024-01-07T13:19:03;14.40;;;2.78;;
21235;SDS011;10775;42.678;26.324;2024-01-07T13:21:29;16.80;;;3.80;;
21235;SDS011;10775;42.678;26.324;2024-01-07T13:23:54;19.55;;;5.07;;
21235;SDS011;10775;42.678;26.324;2024-01-07T13:26:20;24.02;;;5.30;;
21235;SDS011;10775;42.678;26.324;2024-01-07T13:28:46;24.08;;;4.38;;
21235;SDS011;10775;42.678;26.324;2024-01-07T13:31:11;15.93;;;3.67;;
21235;SDS011;10775;42.678;26.324;2024-01-07T13:33:38;15.10;;;3.53;;
21235;SDS011;10775;42.678;26.324;2024-01-07T13:36:04;24.67;;;4.07;;
21235;SDS011;10775;42.678;26.324;2024-01-07T13:38:34;14.40;;;3.70;;
21235;SDS011;10775;42.678;26.324;2024-01-07T13:40:59;20.67;;;3.03;;
21235;SDS011;10775;42.678;26.324;2024-01-07T13:43:25;19.45;;;2.75;;
21235;SDS011;10775;42.678;26.324;2024-01-07T13:45:54;17.77;;;4.00;;
21235;SDS011;10775;42.678;26.324;2024-01-07T13:48:19;18.13;;;3.38;;
21235;SDS011;10775;42.678;26.324;2024-01-07T13:50:45;24.17;;;4.50;;
21235;SDS011;10775;42.678;26.324;2024-01-07T13:53:12;17.48;;;4.13;;
21235;SDS011;10775;42.678;26.324;2024-01-07T13:55:38;20.58;;;5.30;;
21235;SDS011;10775;42.678;26.324;2024-01-07T13:58:03;19.67;;;4.70;;
21235;SDS011;10775;42.678;26.324;2024-01-07T14:00:29;30.55;;;5.68;;
21235;SDS011;10775;42.678;26.324;2024-01-07T14:02:55;22.60;;;5.50;;
21235;SDS011;10775;42.678;26.324;2024-01-07T14:05:20;22.85;;;4.82;;
21235;SDS011;10775;42.678;26.324;2024-01-07T14:07:46;16.52;;;4.45;;
21235;SDS011;10775;42.678;26.324;2024-01-07T14:10:11;20.17;;;5.18;;
21235;SDS011;10775;42.678;26.324;2024-01-07T14:12:55;21.67;;;5.18;;
21235;SDS011;10775;42.678;26.324;2024-01-07T14:15:20;22.02;;;6.05;;
21235;SDS011;10775;42.678;26.324;2024-01-07T14:17:46;24.48;;;6.68;;
21235;SDS011;10775;42.678;26.324;2024-01-07T14:20:11;20.65;;;6.40;;
21235;SDS011;10775;42.678;26.324;2024-01-07T14:22:37;30.17;;;7.40;;
21235;SDS011;10775;42.678;26.324;2024-01-07T14:25:03;37.90;;;11.23;;
21235;SDS011;10775;42.678;26.324;2024-01-07T14:27:29;26.90;;;8.63;;